createdAt,value
2022-12-18T00:01:16.024Z,6.22
2022-12-18T00:03:43.233Z,6.07
2022-12-18T00:06:10.798Z,6.47
2022-12-18T00:08:37.440Z,6.45
2022-12-18T00:11:09.660Z,5.43
2022-12-18T00:13:37.028Z,5.03
2022-12-18T00:20:33.214Z,5.75
2022-12-18T00:22:59.925Z,5.45
2022-12-18T00:25:26.655Z,5.13
2022-12-18T00:27:53.379Z,6.15
2022-12-18T00:30:20.397Z,5.78
2022-12-18T00:32:47.205Z,6.60
2022-12-18T00:35:14.027Z,7.30
2022-12-18T00:37:40.701Z,6.82
2022-12-18T00:40:08.416Z,6.38
2022-12-18T00:42:53.598Z,6.30
2022-12-18T00:45:20.302Z,6.65
2022-12-18T00:47:47.063Z,7.30
2022-12-18T00:50:13.739Z,7.43
2022-12-18T00:52:41.806Z,8.00
2022-12-18T00:55:08.897Z,6.95
2022-12-18T01:00:02.856Z,8.38
2022-12-18T01:02:29.887Z,10.52
2022-12-18T01:04:56.653Z,9.43
2022-12-18T01:07:23.481Z,9.48
2022-12-18T01:09:50.182Z,9.45
2022-12-18T01:12:16.963Z,9.90
2022-12-18T01:14:43.668Z,9.80
2022-12-18T01:17:10.376Z,7.65
2022-12-18T01:19:37.090Z,8.85
2022-12-18T01:24:30.936Z,9.38
2022-12-18T01:26:58.182Z,9.63
2022-12-18T01:31:51.511Z,9.20
2022-12-18T01:34:18.198Z,9.45
2022-12-18T01:36:44.869Z,9.05
2022-12-18T01:39:14.388Z,9.88
2022-12-18T01:42:02.092Z,9.32
2022-12-18T01:44:54.139Z,10.32
2022-12-18T01:47:38.058Z,10.25
2022-12-18T01:50:39.235Z,10.23
2022-12-18T01:53:16.783Z,10.95
2022-12-18T01:55:53.318Z,9.07
2022-12-18T01:58:24.159Z,9.85
2022-12-18T02:00:51.034Z,9.85
2022-12-18T02:03:20.158Z,10.75
2022-12-18T02:06:16.561Z,10.32
2022-12-18T02:08:59.498Z,7.85
2022-12-18T02:11:59.359Z,9.63
2022-12-18T02:14:39.236Z,8.38
2022-12-18T02:17:24.456Z,7.50
2022-12-18T02:20:10.443Z,8.57
2022-12-18T02:22:37.088Z,7.40
2022-12-18T02:25:34.928Z,8.88
2022-12-18T02:28:08.001Z,8.55
2022-12-18T02:30:38.603Z,8.73
2022-12-18T02:33:09.012Z,8.50
2022-12-18T02:35:37.236Z,8.32
2022-12-18T02:38:05.530Z,8.52
2022-12-18T02:40:38.475Z,8.80
2022-12-18T02:43:14.115Z,8.13
2022-12-18T02:45:53.045Z,8.48
2022-12-18T02:48:24.551Z,10.50
2022-12-18T02:51:26.414Z,8.95
2022-12-18T02:54:11.474Z,7.72
2022-12-18T02:56:55.371Z,9.68
2022-12-18T02:59:40.999Z,9.30
2022-12-18T03:02:33.856Z,9.85
2022-12-18T03:05:14.091Z,9.15
2022-12-18T03:07:52.822Z,9.73
2022-12-18T03:10:26.008Z,9.43
2022-12-18T03:13:10.464Z,9.23
2022-12-18T03:15:48.894Z,8.48
2022-12-18T03:20:51.848Z,7.93
2022-12-18T03:23:26.664Z,9.32
2022-12-18T03:26:05.859Z,9.10
2022-12-18T03:28:43.014Z,9.75
2022-12-18T03:31:13.383Z,7.80
2022-12-18T03:33:53.233Z,8.00
2022-12-18T03:36:21.916Z,8.65
2022-12-18T03:38:48.908Z,9.25
2022-12-18T03:41:33.315Z,9.10
2022-12-18T03:44:22.173Z,10.88
2022-12-18T03:47:15.592Z,10.88
2022-12-18T03:50:13.595Z,9.98
2022-12-18T03:52:50.006Z,8.98
2022-12-18T03:55:19.293Z,9.38
2022-12-18T03:57:50.365Z,9.13
2022-12-18T04:00:19.006Z,9.50
2022-12-18T04:03:05.652Z,8.93
2022-12-18T04:05:39.755Z,8.48
2022-12-18T04:08:08.007Z,8.07
2022-12-18T04:10:38.302Z,8.07
2022-12-18T04:13:05.103Z,8.63
2022-12-18T04:15:35.595Z,8.90
2022-12-18T04:18:03.875Z,7.78
2022-12-18T04:20:37.551Z,8.75
2022-12-18T04:23:04.351Z,9.63
2022-12-18T04:25:31.092Z,8.05
2022-12-18T04:28:06.323Z,8.60
2022-12-18T04:30:34.440Z,8.88
2022-12-18T04:35:31.211Z,9.23
2022-12-18T04:37:58.276Z,8.20
2022-12-18T04:40:25.084Z,8.30
2022-12-18T04:42:52.713Z,9.95
2022-12-18T04:45:19.633Z,8.52
2022-12-18T04:47:46.369Z,8.65
2022-12-18T04:50:13.065Z,7.32
2022-12-18T04:52:39.775Z,7.30
2022-12-18T04:55:06.798Z,7.28
2022-12-18T05:00:00.215Z,7.63
2022-12-18T05:02:26.986Z,7.07
2022-12-18T05:04:53.766Z,8.02
2022-12-18T05:07:20.471Z,8.52
2022-12-18T05:09:47.268Z,8.38
2022-12-18T05:12:14.118Z,6.53
2022-12-18T05:14:40.824Z,7.53
2022-12-18T05:17:07.493Z,7.55
2022-12-18T05:19:34.303Z,7.65
2022-12-18T05:22:01.027Z,6.63
2022-12-18T05:24:27.725Z,6.65
2022-12-18T05:26:54.404Z,7.75
2022-12-18T05:29:21.110Z,7.70
2022-12-18T05:31:47.901Z,8.68
2022-12-18T05:34:14.742Z,6.57
2022-12-18T05:36:41.423Z,6.15
2022-12-18T05:39:08.543Z,6.32
2022-12-18T05:44:01.986Z,5.78
2022-12-18T05:46:28.821Z,6.88
2022-12-18T05:48:55.624Z,7.07
2022-12-18T05:51:23.515Z,8.38
2022-12-18T05:53:50.246Z,6.30
2022-12-18T05:56:22.438Z,7.22
2022-12-18T05:58:53.313Z,7.25
2022-12-18T06:01:25.322Z,6.97
2022-12-18T06:03:52.285Z,7.07
2022-12-18T06:06:23.114Z,8.57
2022-12-18T06:08:50.436Z,5.95
2022-12-18T06:11:19.571Z,6.93
2022-12-18T06:13:46.657Z,7.15
2022-12-18T06:23:49.535Z,7.32
2022-12-18T06:26:16.743Z,9.18
2022-12-18T06:28:43.632Z,7.68
2022-12-18T06:31:11.308Z,7.07
2022-12-18T06:33:38.877Z,7.45
2022-12-18T06:36:11.344Z,8.52
2022-12-18T06:38:42.026Z,7.85
2022-12-18T06:41:10.003Z,7.13
2022-12-18T06:43:37.584Z,10.68
2022-12-18T06:46:06.183Z,7.70
2022-12-18T06:48:33.401Z,7.53
2022-12-18T06:53:27.647Z,6.57
2022-12-18T06:56:03.858Z,9.60
2022-12-18T06:58:33.570Z,10.57
2022-12-18T07:03:27.953Z,6.35
2022-12-18T07:05:54.612Z,8.68
2022-12-18T07:08:21.316Z,6.70
2022-12-18T07:10:54.428Z,7.10
2022-12-18T07:13:23.235Z,7.30
2022-12-18T07:15:49.967Z,8.57
2022-12-18T07:18:16.643Z,8.80
2022-12-18T07:20:43.487Z,8.35
2022-12-18T07:23:10.212Z,8.55
2022-12-18T07:25:37.910Z,7.57
2022-12-18T07:28:05.148Z,7.18
2022-12-18T07:30:32.257Z,23.27
2022-12-18T07:35:25.656Z,15.13
2022-12-18T07:37:52.411Z,10.88
2022-12-18T07:40:19.154Z,12.95
2022-12-18T07:42:45.820Z,14.35
2022-12-18T07:45:12.528Z,12.73
2022-12-18T07:47:39.326Z,8.35
2022-12-18T07:50:06.700Z,17.88
2022-12-18T07:52:33.541Z,15.80
2022-12-18T07:55:00.819Z,16.02
2022-12-18T07:57:49.373Z,13.88
2022-12-18T08:00:14.892Z,11.57
2022-12-18T08:02:42.318Z,11.82
2022-12-18T08:05:09.572Z,11.60
2022-12-18T08:10:02.913Z,12.25
2022-12-18T08:12:30.834Z,11.13
2022-12-18T08:14:57.525Z,10.25
2022-12-18T08:17:24.399Z,10.45
2022-12-18T08:19:51.045Z,8.90
2022-12-18T08:22:17.720Z,10.10
2022-12-18T08:24:44.456Z,9.00
2022-12-18T08:27:29.043Z,9.35
2022-12-18T08:29:57.261Z,13.95
2022-12-18T08:32:24.703Z,15.43
2022-12-18T08:34:51.421Z,11.15
2022-12-18T08:37:18.151Z,14.82
2022-12-18T08:39:44.835Z,10.07
2022-12-18T08:42:30.408Z,9.82
2022-12-18T08:44:57.115Z,8.77
2022-12-18T08:47:23.802Z,11.05
2022-12-18T08:49:50.475Z,11.02
2022-12-18T08:52:17.136Z,10.15
2022-12-18T08:54:43.923Z,9.63
2022-12-18T08:57:10.697Z,9.57
2022-12-18T08:59:37.391Z,10.90
2022-12-18T09:02:04.279Z,10.27
2022-12-18T09:04:31.144Z,9.88
2022-12-18T09:06:57.829Z,9.45
2022-12-18T09:09:24.528Z,8.55
2022-12-18T09:11:51.265Z,8.07
2022-12-18T09:14:17.949Z,8.23
2022-12-18T09:16:44.750Z,7.88
2022-12-18T09:19:11.781Z,10.27
2022-12-18T09:21:41.217Z,9.55
2022-12-18T09:24:14.856Z,8.82
2022-12-18T09:26:41.623Z,9.30
2022-12-18T09:29:10.398Z,9.68
2022-12-18T09:31:37.675Z,12.05
2022-12-18T09:34:04.364Z,9.98
2022-12-18T09:36:32.508Z,8.90
2022-12-18T09:39:03.745Z,10.95
2022-12-18T09:41:35.908Z,8.38
2022-12-18T09:44:14.980Z,8.73
2022-12-18T09:46:47.682Z,7.88
2022-12-18T09:49:18.738Z,7.97
2022-12-18T09:51:52.034Z,8.60
2022-12-18T09:54:26.600Z,8.68
2022-12-18T09:56:54.573Z,7.70
2022-12-18T09:59:32.857Z,7.63
2022-12-18T10:01:59.640Z,8.65
2022-12-18T10:04:31.513Z,7.93
2022-12-18T10:07:09.328Z,7.80
2022-12-18T10:09:53.637Z,5.43
2022-12-18T10:12:20.532Z,7.63
2022-12-18T10:14:55.665Z,8.65
2022-12-18T10:18:18.789Z,8.20
2022-12-18T10:21:02.408Z,8.15
2022-12-18T10:23:53.932Z,8.35
2022-12-18T10:26:20.996Z,7.70
2022-12-18T10:28:48.831Z,6.43
2022-12-18T10:31:24.573Z,7.95
2022-12-18T10:33:54.508Z,7.13
2022-12-18T10:36:21.673Z,7.15
2022-12-18T10:38:50.551Z,7.65
2022-12-18T10:41:21.990Z,7.30
2022-12-18T10:43:48.975Z,7.65
2022-12-18T10:46:20.333Z,7.18
2022-12-18T10:48:55.099Z,6.50
2022-12-18T10:51:34.426Z,6.68
2022-12-18T10:54:17.901Z,6.97
2022-12-18T10:56:45.118Z,8.18
2022-12-18T10:59:15.668Z,8.07
2022-12-18T11:01:58.940Z,7.00
2022-12-18T11:04:28.704Z,7.53
2022-12-18T11:07:04.107Z,7.05
2022-12-18T11:09:36.450Z,7.15
2022-12-18T11:12:07.099Z,6.35
2022-12-18T11:14:47.098Z,7.15
2022-12-18T11:17:32.938Z,6.93
2022-12-18T11:20:01.883Z,7.63
2022-12-18T11:22:31.524Z,6.45
2022-12-18T11:25:34.429Z,5.40
2022-12-18T11:28:25.598Z,5.72
2022-12-18T11:31:09.608Z,5.50
2022-12-18T11:33:38.903Z,5.60
2022-12-18T11:36:10.523Z,5.10
2022-12-18T11:38:40.237Z,5.45
2022-12-18T11:41:19.181Z,6.43
2022-12-18T11:43:59.574Z,5.63
2022-12-18T11:46:35.604Z,5.82
2022-12-18T11:49:22.523Z,5.30
2022-12-18T11:51:59.831Z,5.43
2022-12-18T11:54:26.918Z,5.30
2022-12-18T11:57:11.439Z,5.13
2022-12-18T11:59:44.396Z,6.55
2022-12-18T12:02:34.318Z,5.65
2022-12-18T12:05:19.441Z,6.45
2022-12-18T12:08:08.741Z,6.05
2022-12-18T12:10:45.088Z,6.35
2022-12-18T12:13:30.483Z,5.50
2022-12-18T12:16:12.751Z,4.82
2022-12-18T12:18:42.706Z,4.75
2022-12-18T12:21:22.833Z,4.03
2022-12-18T12:24:13.552Z,4.70
2022-12-18T12:26:53.057Z,4.65
2022-12-18T12:29:45.557Z,4.35
2022-12-18T12:32:21.701Z,4.35
2022-12-18T12:35:26.441Z,4.53
2022-12-18T12:38:11.970Z,4.80
2022-12-18T12:41:02.135Z,4.90
2022-12-18T12:43:50.960Z,4.28
2022-12-18T12:46:22.266Z,5.20
2022-12-18T12:48:53.730Z,4.47
2022-12-18T12:51:35.291Z,5.32
2022-12-18T12:54:06.859Z,4.07
2022-12-18T12:57:04.259Z,5.05
2022-12-18T12:59:52.074Z,5.60
2022-12-18T13:02:34.575Z,5.07
2022-12-18T13:05:31.064Z,4.50
2022-12-18T13:08:08.336Z,4.47
2022-12-18T13:10:41.643Z,4.82
2022-12-18T13:16:08.981Z,8.45
2022-12-18T13:18:36.024Z,6.30
2022-12-18T13:21:14.451Z,6.63
2022-12-18T13:23:41.881Z,5.53
2022-12-18T13:26:09.620Z,5.40
2022-12-18T13:28:46.816Z,7.80
2022-12-18T13:31:32.583Z,5.50
2022-12-18T13:34:27.580Z,6.00
2022-12-18T13:36:58.306Z,6.97
2022-12-18T13:39:35.024Z,7.60
2022-12-18T13:42:08.434Z,8.88
2022-12-18T13:44:42.176Z,9.60
2022-12-18T13:47:33.105Z,11.75
2022-12-18T13:50:01.826Z,14.25
2022-12-18T13:52:40.198Z,11.32
2022-12-18T13:55:16.419Z,8.90
2022-12-18T13:57:43.099Z,12.75
2022-12-18T14:00:30.140Z,11.75
2022-12-18T14:02:58.421Z,9.55
2022-12-18T14:05:27.769Z,8.38
2022-12-18T14:07:55.605Z,7.55
2022-12-18T14:13:16.116Z,5.75
2022-12-18T14:15:47.531Z,10.48
2022-12-18T14:18:26.324Z,11.30
2022-12-18T14:20:56.369Z,8.07
2022-12-18T14:23:35.940Z,7.82
2022-12-18T14:26:06.276Z,24.48
2022-12-18T14:28:33.367Z,27.05
2022-12-18T14:31:00.141Z,22.40
2022-12-18T14:33:28.424Z,19.85
2022-12-18T14:36:01.584Z,16.67
2022-12-18T14:38:28.319Z,14.85
2022-12-18T14:41:15.234Z,15.80
2022-12-18T14:43:44.402Z,17.75
2022-12-18T14:46:33.736Z,17.85
2022-12-18T14:49:29.353Z,26.23
2022-12-18T14:52:23.676Z,23.90
2022-12-18T14:54:50.560Z,16.00
2022-12-18T14:57:25.989Z,9.43
2022-12-18T14:59:52.844Z,10.38
2022-12-18T15:02:30.088Z,8.73
2022-12-18T15:05:09.824Z,11.30
2022-12-18T15:07:45.258Z,16.63
2022-12-18T15:10:13.949Z,17.00
2022-12-18T15:12:46.071Z,14.88
2022-12-18T15:15:34.947Z,9.52
2022-12-18T15:18:03.992Z,10.20
2022-12-18T15:20:40.772Z,13.63
2022-12-18T15:23:25.944Z,14.38
2022-12-18T15:26:04.622Z,15.75
2022-12-18T15:28:46.311Z,10.45
2022-12-18T15:31:13.160Z,8.55
2022-12-18T15:34:04.643Z,10.68
2022-12-18T15:36:31.566Z,12.73
2022-12-18T15:39:04.747Z,12.15
2022-12-18T15:41:35.216Z,14.60
2022-12-18T15:44:04.427Z,10.40
2022-12-18T15:46:31.748Z,10.25
2022-12-18T15:49:02.124Z,9.82
2022-12-18T15:51:36.559Z,12.77
2022-12-18T15:54:06.148Z,13.05
2022-12-18T15:56:52.090Z,11.30
2022-12-18T15:59:20.721Z,11.00
2022-12-18T16:01:49.729Z,13.15
2022-12-18T16:04:21.369Z,18.70
2022-12-18T16:07:13.895Z,15.40
2022-12-18T16:09:37.037Z,11.18
2022-12-18T16:12:03.912Z,13.10
2022-12-18T16:14:31.234Z,13.70
2022-12-18T16:17:00.645Z,14.32
2022-12-18T16:19:27.837Z,9.80
2022-12-18T16:21:57.271Z,12.48
2022-12-18T16:24:26.555Z,11.63
2022-12-18T16:26:54.441Z,13.98
2022-12-18T16:29:25.658Z,12.68
2022-12-18T16:31:53.023Z,15.13
2022-12-18T16:34:29.792Z,13.00
2022-12-18T16:37:05.858Z,12.15
2022-12-18T16:39:37.355Z,16.52
2022-12-18T16:42:20.124Z,15.10
2022-12-18T16:44:48.680Z,13.82
2022-12-18T16:47:16.319Z,18.15
2022-12-18T16:49:45.733Z,18.95
2022-12-18T16:52:13.622Z,16.30
2022-12-18T16:54:40.526Z,10.73
2022-12-18T16:57:07.235Z,10.75
2022-12-18T16:59:35.085Z,15.55
2022-12-18T17:02:01.872Z,19.15
2022-12-18T17:04:28.641Z,19.30
2022-12-18T17:06:55.486Z,13.95
2022-12-18T17:09:26.358Z,13.02
2022-12-18T17:11:54.280Z,12.32
2022-12-18T17:14:23.654Z,11.00
2022-12-18T17:17:07.216Z,9.77
2022-12-18T17:19:36.483Z,8.88
2022-12-18T17:22:04.336Z,8.23
2022-12-18T17:24:34.773Z,9.02
2022-12-18T17:27:02.295Z,8.60
2022-12-18T17:29:29.017Z,9.70
2022-12-18T17:31:55.662Z,8.95
2022-12-18T17:34:24.292Z,7.75
2022-12-18T17:36:51.200Z,6.20
2022-12-18T17:39:20.265Z,6.90
2022-12-18T17:41:48.173Z,7.45
2022-12-18T17:44:15.119Z,7.82
2022-12-18T17:46:42.329Z,8.20
2022-12-18T17:49:10.500Z,9.38
2022-12-18T17:51:37.302Z,9.77
2022-12-18T17:54:05.287Z,10.63
2022-12-18T17:56:32.852Z,11.30
2022-12-18T17:59:00.121Z,10.57
2022-12-18T18:03:57.510Z,10.25
2022-12-18T18:06:24.416Z,13.43
2022-12-18T18:08:51.957Z,14.38
2022-12-18T18:11:40.005Z,11.05
2022-12-18T18:14:13.411Z,11.02
2022-12-18T18:16:43.042Z,10.57
2022-12-18T18:19:12.451Z,11.93
2022-12-18T18:21:41.700Z,14.68
2022-12-18T18:24:10.438Z,19.48
2022-12-18T18:26:37.869Z,18.67
2022-12-18T18:29:06.857Z,15.02
2022-12-18T18:31:39.681Z,17.58
2022-12-18T18:34:08.766Z,18.00
2022-12-18T18:39:02.279Z,15.98
2022-12-18T18:41:30.452Z,15.25
2022-12-18T18:43:58.274Z,15.32
2022-12-18T18:46:25.737Z,23.83
2022-12-18T18:48:53.032Z,36.47
2022-12-18T18:53:50.620Z,14.75
2022-12-18T18:56:56.164Z,15.00
2022-12-18T18:59:06.718Z,16.80
2022-12-18T19:01:33.447Z,17.65
2022-12-18T19:04:01.066Z,16.45
2022-12-18T19:06:28.461Z,15.23
2022-12-18T19:08:57.356Z,15.60
2022-12-18T19:11:44.495Z,15.93
2022-12-18T19:14:13.613Z,14.00
2022-12-18T19:16:40.840Z,12.90
2022-12-18T19:19:08.214Z,12.82
2022-12-18T19:21:35.701Z,13.48
2022-12-18T19:26:30.355Z,10.63
2022-12-18T19:29:08.365Z,11.02
2022-12-18T19:31:37.182Z,6.50
2022-12-18T19:34:06.787Z,6.85
2022-12-18T19:36:35.596Z,8.07
2022-12-18T19:39:08.911Z,8.00
2022-12-18T19:41:35.577Z,7.95
2022-12-18T19:46:36.159Z,6.68
2022-12-18T19:49:07.303Z,9.43
2022-12-18T19:51:34.423Z,7.43
2022-12-18T19:54:02.114Z,8.90
2022-12-18T19:56:32.583Z,8.73
2022-12-18T19:58:59.787Z,6.03
2022-12-18T20:03:55.883Z,7.22
2022-12-18T20:06:31.022Z,8.23
2022-12-18T20:09:01.433Z,8.18
2022-12-18T20:11:32.057Z,8.95
2022-12-18T20:13:59.000Z,9.07
2022-12-18T20:16:25.729Z,9.75
2022-12-18T20:18:52.483Z,9.95
2022-12-18T20:21:19.611Z,11.60
2022-12-18T20:23:46.303Z,10.00
2022-12-18T20:26:13.187Z,12.27
2022-12-18T20:28:40.712Z,11.18
2022-12-18T20:31:10.499Z,10.57
2022-12-18T20:33:41.445Z,9.32
2022-12-18T20:36:12.997Z,8.73
2022-12-18T20:38:41.125Z,8.60
2022-12-18T20:41:16.761Z,8.07
2022-12-18T20:43:44.515Z,9.02
2022-12-18T20:46:13.761Z,8.55
2022-12-18T20:48:41.047Z,8.05
2022-12-18T20:53:36.408Z,7.90
2022-12-18T20:56:09.502Z,8.38
2022-12-18T20:58:36.404Z,8.57
2022-12-18T21:01:05.456Z,7.47
2022-12-18T21:03:32.523Z,7.57
2022-12-18T21:05:59.662Z,7.70
2022-12-18T21:08:26.424Z,7.70
2022-12-18T21:10:53.328Z,7.97
2022-12-18T21:13:22.480Z,7.20
2022-12-18T21:15:49.210Z,7.97
2022-12-18T21:18:16.036Z,6.05
2022-12-18T21:20:42.787Z,13.75
2022-12-18T21:23:16.512Z,10.30
2022-12-18T21:25:44.332Z,7.68
2022-12-18T21:28:12.348Z,7.43
2022-12-18T21:30:39.121Z,8.50
2022-12-18T21:33:05.797Z,7.78
2022-12-18T21:35:32.479Z,6.97
2022-12-18T21:37:59.141Z,5.45
2022-12-18T21:40:25.802Z,6.45
2022-12-18T21:43:17.891Z,6.47
2022-12-18T21:45:44.706Z,6.88
2022-12-18T21:48:12.135Z,7.78
2022-12-18T21:50:38.987Z,7.32
2022-12-18T21:53:05.668Z,8.05
2022-12-18T21:55:32.338Z,10.77
2022-12-18T21:57:59.093Z,15.27
2022-12-18T22:00:25.830Z,10.05
2022-12-18T22:03:17.219Z,7.05
2022-12-18T22:05:39.352Z,4.95
2022-12-18T22:08:07.462Z,5.20
2022-12-18T22:10:34.716Z,4.90
2022-12-18T22:13:01.443Z,6.85
2022-12-18T22:15:28.252Z,7.68
2022-12-18T22:17:59.683Z,7.63
2022-12-18T22:20:28.100Z,6.22
2022-12-18T22:22:56.553Z,5.75
2022-12-18T22:25:23.265Z,6.28
2022-12-18T22:28:08.539Z,6.60
2022-12-18T22:30:35.600Z,6.28
2022-12-18T22:33:03.477Z,6.90
2022-12-18T22:35:30.299Z,6.57
2022-12-18T22:37:59.360Z,7.03
2022-12-18T22:40:26.964Z,6.20
2022-12-18T22:42:54.316Z,6.43
2022-12-18T22:47:47.809Z,6.07
2022-12-18T22:50:15.196Z,6.28
2022-12-18T22:52:42.425Z,6.95
2022-12-18T22:55:09.370Z,5.97
2022-12-18T22:57:36.103Z,5.70
2022-12-18T23:00:05.600Z,5.53
2022-12-18T23:02:32.667Z,5.47
2022-12-18T23:04:59.509Z,6.10
2022-12-18T23:07:26.184Z,5.07
2022-12-18T23:09:59.588Z,5.40
2022-12-18T23:12:28.013Z,5.88
2022-12-18T23:14:54.784Z,5.90
2022-12-18T23:17:21.513Z,5.55
2022-12-18T23:19:49.379Z,5.20
2022-12-18T23:22:17.123Z,5.28
2022-12-18T23:24:44.088Z,5.50
2022-12-18T23:27:11.879Z,6.50
2022-12-18T23:29:39.493Z,5.22
2022-12-18T23:34:33.323Z,5.53
2022-12-18T23:37:01.006Z,5.55
2022-12-18T23:39:29.304Z,6.20
2022-12-18T23:42:00.184Z,5.88
2022-12-18T23:44:27.286Z,5.63
2022-12-18T23:46:54.291Z,6.03
2022-12-18T23:49:21.166Z,6.55
2022-12-18T23:51:48.002Z,5.38
2022-12-18T23:54:14.808Z,4.30
2022-12-18T23:56:41.813Z,5.05
2022-12-18T23:59:08.623Z,5.53
